createdAt,value
2018-07-08T00:01:11.770Z,94.10
2018-07-08T00:03:39.805Z,93.90
2018-07-08T00:06:08.265Z,93.60
2018-07-08T00:08:36.265Z,93.90
2018-07-08T00:11:04.402Z,94.00
2018-07-08T00:13:35.033Z,94.00
2018-07-08T00:16:07.611Z,94.20
2018-07-08T00:18:35.968Z,94.90
2018-07-08T00:21:05.325Z,95.20
2018-07-08T00:23:34.514Z,95.10
2018-07-08T00:26:02.788Z,95.10
2018-07-08T00:28:31.553Z,95.00
2018-07-08T00:31:00.157Z,95.20
2018-07-08T00:33:28.335Z,95.20
2018-07-08T00:35:56.650Z,95.40
2018-07-08T00:38:24.736Z,95.90
2018-07-08T00:40:53.373Z,96.10
2018-07-08T00:43:24.209Z,96.50
2018-07-08T00:48:20.375Z,97.20
2018-07-08T00:50:48.406Z,97.50
2018-07-08T00:53:16.882Z,97.60
2018-07-08T00:55:45.058Z,98.10
2018-07-08T00:58:13.354Z,98.10
2018-07-08T01:00:43.097Z,98.00
2018-07-08T01:05:40.222Z,97.80
2018-07-08T01:08:08.510Z,97.90
2018-07-08T01:10:37.541Z,98.10
2018-07-08T01:13:05.950Z,98.30
2018-07-08T01:15:34.182Z,98.40
2018-07-08T01:18:02.264Z,98.60
2018-07-08T01:20:30.743Z,98.50
2018-07-08T01:22:59.197Z,98.40
2018-07-08T01:25:38.620Z,98.50
2018-07-08T01:28:08.192Z,98.40
2018-07-08T01:30:37.789Z,98.30
2018-07-08T01:33:05.974Z,98.20
2018-07-08T01:35:33.951Z,98.10
2018-07-08T01:38:02.048Z,98.20
2018-07-08T01:42:58.950Z,98.50
2018-07-08T01:45:36.887Z,98.80
2018-07-08T01:48:05.189Z,98.90
2018-07-08T01:53:01.950Z,99.10
2018-07-08T01:55:29.994Z,99.30
2018-07-08T01:57:58.551Z,99.30
2018-07-08T02:00:27.088Z,99.40
2018-07-08T02:02:55.701Z,99.50
2018-07-08T02:05:23.750Z,99.50
2018-07-08T02:07:51.987Z,99.70
2018-07-08T02:10:21.367Z,99.60
2018-07-08T02:12:50.032Z,99.70
2018-07-08T02:15:18.370Z,99.80
2018-07-08T02:17:47.122Z,99.90
2018-07-08T02:20:17.397Z,99.90
2018-07-08T02:22:46.314Z,99.90
2018-07-08T02:25:14.522Z,99.90
2018-07-08T02:27:43.007Z,99.80
2018-07-08T02:30:11.075Z,99.70
2018-07-08T02:32:39.477Z,99.70
2018-07-08T02:35:07.571Z,99.80
2018-07-08T02:37:35.730Z,99.90
2018-07-08T02:42:32.069Z,99.90
2018-07-08T02:45:00.366Z,99.90
2018-07-08T02:47:28.434Z,99.90
2018-07-08T02:49:56.434Z,99.90
2018-07-08T02:52:24.449Z,99.90
2018-07-08T02:54:52.504Z,99.80
2018-07-08T02:57:20.699Z,99.80
2018-07-08T03:07:13.785Z,99.90
2018-07-08T03:09:41.945Z,99.80
2018-07-08T03:12:11.346Z,99.80
2018-07-08T03:14:39.544Z,99.70
2018-07-08T03:17:08.401Z,99.90
2018-07-08T03:19:37.839Z,99.90
2018-07-08T03:22:06.389Z,99.90
2018-07-08T03:24:35.194Z,99.90
2018-07-08T03:27:05.284Z,99.90
2018-07-08T03:29:33.561Z,99.90
2018-07-08T03:32:01.802Z,99.90
2018-07-08T03:34:30.516Z,99.90
2018-07-08T03:36:58.533Z,99.90
2018-07-08T03:41:54.712Z,99.90
2018-07-08T03:44:22.696Z,99.90
2018-07-08T03:46:50.886Z,99.90
2018-07-08T03:49:19.145Z,99.90
2018-07-08T03:51:47.482Z,99.90
2018-07-08T03:56:49.697Z,99.90
2018-07-08T04:01:46.241Z,99.90
2018-07-08T04:04:14.454Z,99.90
2018-07-08T04:06:42.850Z,99.90
2018-07-08T04:11:40.162Z,99.90
2018-07-08T04:14:08.276Z,99.90
2018-07-08T04:16:36.732Z,99.90
2018-07-08T04:19:05.121Z,99.90
2018-07-08T04:21:33.622Z,99.90
2018-07-08T04:24:01.747Z,99.90
2018-07-08T04:26:29.927Z,99.90
2018-07-08T04:28:58.458Z,99.90
2018-07-08T04:31:26.681Z,99.90
2018-07-08T04:33:55.028Z,99.90
2018-07-08T04:36:23.035Z,99.90
2018-07-08T04:38:51.297Z,99.90
2018-07-08T04:41:19.509Z,99.90
2018-07-08T04:43:47.569Z,99.90
2018-07-08T04:46:15.857Z,99.90
2018-07-08T04:48:43.986Z,99.90
2018-07-08T04:51:12.200Z,99.90
2018-07-08T04:53:40.383Z,99.90
2018-07-08T04:56:08.629Z,99.90
2018-07-08T04:58:37.778Z,99.90
2018-07-08T05:01:05.883Z,99.90
2018-07-08T05:03:34.174Z,99.90
2018-07-08T05:06:02.245Z,99.90
2018-07-08T05:08:30.234Z,99.90
2018-07-08T05:10:58.500Z,99.90
2018-07-08T05:13:26.794Z,99.90
2018-07-08T05:15:54.982Z,99.90
2018-07-08T05:18:23.778Z,99.90
2018-07-08T05:20:53.163Z,99.90
2018-07-08T05:23:22.505Z,99.90
2018-07-08T05:25:50.801Z,99.90
2018-07-08T05:28:19.137Z,99.90
2018-07-08T05:30:50.513Z,99.90
2018-07-08T05:33:18.733Z,99.90
2018-07-08T05:35:47.004Z,99.90
2018-07-08T05:38:15.016Z,99.90
2018-07-08T05:40:43.042Z,99.90
2018-07-08T05:43:12.118Z,99.90
2018-07-08T05:45:40.141Z,99.90
2018-07-08T05:48:08.172Z,99.90
2018-07-08T05:50:36.414Z,99.90
2018-07-08T05:53:04.523Z,99.90
2018-07-08T05:55:32.566Z,99.90
2018-07-08T05:58:04.743Z,99.90
2018-07-08T06:00:33.257Z,99.90
2018-07-08T06:03:02.409Z,99.90
2018-07-08T06:05:31.889Z,99.90
2018-07-08T06:07:59.985Z,99.90
2018-07-08T06:10:28.974Z,99.90
2018-07-08T06:12:56.982Z,99.90
2018-07-08T06:15:25.485Z,99.90
2018-07-08T06:17:56.093Z,99.90
2018-07-08T06:20:24.259Z,99.90
2018-07-08T06:22:52.621Z,99.90
2018-07-08T06:25:20.600Z,99.90
2018-07-08T06:27:49.352Z,99.90
2018-07-08T06:30:17.467Z,99.90
2018-07-08T06:32:45.623Z,99.90
2018-07-08T06:35:14.018Z,99.50
2018-07-08T06:37:42.070Z,99.30
2018-07-08T06:40:10.219Z,99.40
2018-07-08T06:42:38.376Z,99.40
2018-07-08T06:45:06.407Z,98.70
2018-07-08T06:47:34.672Z,98.30
2018-07-08T06:50:04.141Z,97.50
2018-07-08T06:52:34.033Z,96.30
2018-07-08T06:55:02.394Z,93.20
2018-07-08T06:57:30.674Z,91.00
2018-07-08T06:59:58.728Z,90.00
2018-07-08T07:02:28.125Z,86.60
2018-07-08T07:04:56.726Z,83.40
2018-07-08T07:07:25.090Z,83.00
2018-07-08T07:09:53.330Z,80.70
2018-07-08T07:12:28.774Z,77.70
2018-07-08T07:15:00.052Z,76.40
2018-07-08T07:17:28.114Z,77.00
2018-07-08T07:19:56.218Z,76.80
2018-07-08T07:22:25.248Z,76.10
2018-07-08T07:24:53.443Z,77.50
2018-07-08T07:27:22.338Z,77.30
2018-07-08T07:29:51.206Z,74.40
2018-07-08T07:32:19.275Z,72.20
2018-07-08T07:34:47.591Z,70.80
2018-07-08T07:37:16.509Z,74.20
2018-07-08T07:42:14.635Z,69.20
2018-07-08T07:44:42.724Z,69.30
2018-07-08T07:47:11.753Z,68.30
2018-07-08T07:49:41.245Z,69.60
2018-07-08T07:52:11.358Z,68.10
2018-07-08T07:54:39.843Z,67.00
2018-07-08T07:57:08.010Z,66.90
2018-07-08T07:59:38.009Z,66.80
2018-07-08T08:02:07.182Z,66.40
2018-07-08T08:04:35.748Z,64.90
2018-07-08T08:07:04.615Z,66.90
2018-07-08T08:09:35.767Z,66.10
2018-07-08T08:12:05.371Z,68.20
2018-07-08T08:14:34.841Z,68.30
2018-07-08T08:17:03.001Z,67.10
2018-07-08T08:19:31.639Z,65.80
2018-07-08T08:22:01.087Z,64.80
2018-07-08T08:24:33.144Z,63.30
2018-07-08T08:27:02.339Z,64.30
2018-07-08T08:29:31.810Z,62.80
2018-07-08T08:32:00.875Z,67.90
2018-07-08T08:35:06.489Z,65.30
2018-07-08T08:37:37.956Z,64.10
2018-07-08T08:40:07.589Z,66.50
2018-07-08T08:42:38.290Z,62.80
2018-07-08T08:45:09.283Z,66.10
2018-07-08T08:47:38.331Z,63.10
2018-07-08T08:50:07.358Z,62.40
2018-07-08T08:52:38.520Z,62.00
2018-07-08T08:55:08.321Z,60.70
2018-07-08T08:57:38.019Z,61.50
2018-07-08T09:00:08.265Z,61.60
2018-07-08T09:02:38.354Z,60.40
2018-07-08T09:05:07.601Z,60.50
2018-07-08T09:07:38.294Z,60.90
2018-07-08T09:10:07.362Z,63.10
2018-07-08T09:12:36.370Z,60.50
2018-07-08T09:15:05.211Z,58.90
2018-07-08T09:17:33.654Z,60.00
2018-07-08T09:20:07.069Z,61.90
2018-07-08T09:22:42.824Z,59.30
2018-07-08T09:25:11.632Z,57.80
2018-07-08T09:27:40.523Z,58.80
2018-07-08T09:30:09.086Z,59.40
2018-07-08T09:32:37.582Z,58.20
2018-07-08T09:35:05.657Z,58.90
2018-07-08T09:37:36.801Z,57.20
2018-07-08T09:40:06.618Z,56.10
2018-07-08T09:42:40.621Z,56.80
2018-07-08T09:45:10.320Z,58.00
2018-07-08T09:47:39.827Z,58.10
2018-07-08T09:50:08.374Z,56.80
2018-07-08T09:52:37.793Z,55.50
2018-07-08T09:55:07.429Z,56.20
2018-07-08T09:57:36.224Z,58.90
2018-07-08T10:00:06.106Z,61.30
2018-07-08T10:02:35.537Z,62.20
2018-07-08T10:05:04.512Z,62.10
2018-07-08T10:07:35.281Z,62.50
2018-07-08T10:10:04.033Z,61.90
2018-07-08T10:12:33.217Z,61.70
2018-07-08T10:15:01.338Z,62.20
2018-07-08T10:17:31.161Z,62.70
2018-07-08T10:22:28.366Z,62.30
2018-07-08T10:24:57.842Z,63.80
2018-07-08T10:29:43.053Z,63.10
2018-07-08T10:32:13.782Z,62.50
2018-07-08T10:34:42.083Z,62.30
2018-07-08T10:37:11.686Z,62.60
2018-07-08T10:39:41.218Z,61.90
2018-07-08T10:42:13.078Z,61.90
2018-07-08T10:44:42.872Z,62.00
2018-07-08T10:47:14.263Z,61.80
2018-07-08T10:49:42.608Z,62.10
2018-07-08T10:52:12.730Z,62.80
2018-07-08T10:54:42.308Z,63.30
2018-07-08T10:57:12.174Z,63.80
2018-07-08T10:59:41.349Z,63.70
2018-07-08T11:02:10.727Z,64.70
2018-07-08T11:04:42.803Z,64.60
2018-07-08T11:07:11.326Z,64.80
2018-07-08T11:09:44.886Z,63.50
2018-07-08T11:12:15.924Z,63.00
2018-07-08T11:14:45.389Z,63.40
2018-07-08T11:17:15.025Z,63.50
2018-07-08T11:19:43.283Z,63.40
2018-07-08T11:22:11.891Z,64.90
2018-07-08T11:24:41.080Z,64.70
2018-07-08T11:27:10.806Z,64.20
2018-07-08T11:29:38.969Z,65.30
2018-07-08T11:32:10.339Z,64.80
2018-07-08T11:34:38.806Z,64.60
2018-07-08T11:37:07.346Z,64.20
2018-07-08T11:39:35.847Z,64.40
2018-07-08T11:42:04.364Z,65.80
2018-07-08T11:44:35.823Z,65.60
2018-07-08T11:47:04.090Z,66.80
2018-07-08T11:49:35.356Z,65.60
2018-07-08T11:52:12.427Z,65.20
2018-07-08T11:54:40.478Z,64.70
2018-07-08T11:57:08.797Z,64.30
2018-07-08T11:59:38.075Z,65.10
2018-07-08T12:02:07.345Z,62.70
2018-07-08T12:04:35.994Z,63.40
2018-07-08T12:07:05.604Z,64.00
2018-07-08T12:09:33.897Z,65.30
2018-07-08T12:12:05.620Z,64.90
2018-07-08T12:14:41.573Z,65.30
2018-07-08T12:19:49.659Z,64.70
2018-07-08T12:22:17.984Z,65.60
2018-07-08T12:24:47.294Z,64.60
2018-07-08T12:27:15.454Z,64.60
2018-07-08T12:29:45.074Z,64.20
2018-07-08T12:32:13.692Z,63.60
2018-07-08T12:34:41.931Z,63.20
2018-07-08T12:37:10.435Z,60.90
2018-07-08T12:39:38.938Z,61.70
2018-07-08T12:42:10.379Z,61.80
2018-07-08T12:44:38.935Z,61.60
2018-07-08T12:47:08.548Z,62.00
2018-07-08T12:49:37.785Z,61.10
2018-07-08T12:52:10.490Z,59.50
2018-07-08T12:54:40.694Z,60.40
2018-07-08T12:57:12.549Z,61.00
2018-07-08T12:59:41.849Z,60.00
2018-07-08T13:02:10.670Z,59.90
2018-07-08T13:04:40.608Z,59.50
2018-07-08T13:07:09.377Z,59.10
2018-07-08T13:09:55.369Z,59.50
2018-07-08T13:12:30.366Z,60.30
2018-07-08T13:14:59.698Z,60.40
2018-07-08T13:17:30.105Z,60.70
2018-07-08T13:19:59.368Z,60.70
2018-07-08T13:22:28.398Z,60.10
2018-07-08T13:24:58.196Z,60.00
2018-07-08T13:27:29.706Z,59.20
2018-07-08T13:30:03.082Z,59.60
2018-07-08T13:32:33.928Z,59.60
2018-07-08T13:35:02.365Z,60.20
2018-07-08T13:37:34.743Z,59.50
2018-07-08T13:40:03.567Z,59.50
2018-07-08T13:42:32.669Z,58.90
2018-07-08T13:45:01.979Z,57.70
2018-07-08T13:47:31.391Z,57.60
2018-07-08T13:50:00.285Z,57.40
2018-07-08T13:52:28.783Z,57.80
2018-07-08T13:54:58.417Z,58.80
2018-07-08T13:57:29.737Z,58.20
2018-07-08T14:00:00.354Z,57.90
2018-07-08T14:02:29.714Z,58.10
2018-07-08T14:04:58.596Z,56.80
2018-07-08T14:07:35.406Z,57.50
2018-07-08T14:10:06.766Z,57.60
2018-07-08T14:12:34.993Z,56.80
2018-07-08T14:15:03.494Z,57.20
2018-07-08T14:17:32.030Z,57.40
2018-07-08T14:20:02.554Z,56.90
2018-07-08T14:22:30.771Z,56.60
2018-07-08T14:25:00.357Z,57.00
2018-07-08T14:27:28.646Z,56.50
2018-07-08T14:29:57.378Z,57.00
2018-07-08T14:32:26.107Z,57.30
2018-07-08T14:34:54.901Z,56.70
2018-07-08T14:37:23.296Z,56.70
2018-07-08T14:39:52.099Z,56.90
2018-07-08T14:42:22.700Z,56.20
2018-07-08T14:44:50.916Z,55.50
2018-07-08T14:47:19.241Z,54.80
2018-07-08T14:49:47.789Z,55.40
2018-07-08T14:52:16.905Z,56.10
2018-07-08T14:54:45.352Z,55.60
2018-07-08T14:57:14.345Z,55.50
2018-07-08T14:59:47.052Z,55.10
2018-07-08T15:02:16.339Z,54.80
2018-07-08T15:04:45.186Z,55.30
2018-07-08T15:07:15.796Z,56.10
2018-07-08T15:09:44.161Z,55.90
2018-07-08T15:12:14.720Z,55.70
2018-07-08T15:14:44.982Z,56.30
2018-07-08T15:17:13.277Z,56.90
2018-07-08T15:19:41.672Z,57.20
2018-07-08T15:22:11.682Z,57.70
2018-07-08T15:24:41.757Z,57.40
2018-07-08T15:27:10.049Z,57.80
2018-07-08T15:29:38.792Z,57.40
2018-07-08T15:32:10.750Z,57.70
2018-07-08T15:34:41.948Z,57.50
2018-07-08T15:37:10.238Z,57.30
2018-07-08T15:39:38.609Z,57.00
2018-07-08T15:42:06.985Z,57.60
2018-07-08T15:44:35.344Z,57.60
2018-07-08T15:47:03.989Z,57.70
2018-07-08T15:49:32.557Z,58.00
2018-07-08T15:52:03.396Z,57.30
2018-07-08T15:54:31.961Z,58.10
2018-07-08T15:57:01.598Z,58.00
2018-07-08T15:59:31.854Z,57.60
2018-07-08T16:02:01.326Z,57.50
2018-07-08T16:04:30.629Z,57.50
2018-07-08T16:07:00.800Z,57.40
2018-07-08T16:09:29.265Z,58.30
2018-07-08T16:11:57.604Z,58.90
2018-07-08T16:14:27.361Z,57.80
2018-07-08T16:16:55.720Z,57.60
2018-07-08T16:19:24.017Z,57.50
2018-07-08T16:21:52.222Z,57.80
2018-07-08T16:24:21.596Z,57.40
2018-07-08T16:26:51.049Z,57.50
2018-07-08T16:29:20.652Z,57.50
2018-07-08T16:31:49.046Z,57.20
2018-07-08T16:34:18.884Z,57.80
2018-07-08T16:36:47.631Z,57.20
2018-07-08T16:39:17.081Z,57.30
2018-07-08T16:41:45.838Z,57.60
2018-07-08T16:44:16.005Z,58.10
2018-07-08T16:46:45.821Z,58.50
2018-07-08T16:49:15.166Z,58.10
2018-07-08T16:51:46.099Z,58.20
2018-07-08T16:54:15.955Z,58.20
2018-07-08T16:56:44.750Z,58.40
2018-07-08T16:59:15.133Z,58.40
2018-07-08T17:01:43.744Z,57.90
2018-07-08T17:04:12.634Z,57.70
2018-07-08T17:06:43.037Z,57.30
2018-07-08T17:09:13.706Z,57.90
2018-07-08T17:11:44.400Z,58.40
2018-07-08T17:14:12.730Z,58.20
2018-07-08T17:16:41.762Z,58.00
2018-07-08T17:19:12.022Z,59.10
2018-07-08T17:21:41.276Z,58.80
2018-07-08T17:24:10.491Z,58.80
2018-07-08T17:26:39.268Z,59.20
2018-07-08T17:29:08.623Z,59.10
2018-07-08T17:31:37.803Z,59.70
2018-07-08T17:34:07.531Z,60.20
2018-07-08T17:36:37.125Z,59.50
2018-07-08T17:39:11.950Z,59.20
2018-07-08T17:41:40.399Z,59.40
2018-07-08T17:44:09.350Z,59.30
2018-07-08T17:46:39.154Z,59.40
2018-07-08T17:49:07.422Z,59.70
2018-07-08T17:51:37.351Z,59.80
2018-07-08T17:54:05.630Z,60.10
2018-07-08T17:56:33.971Z,60.20
2018-07-08T17:59:03.679Z,60.90
2018-07-08T18:01:33.339Z,60.90
2018-07-08T18:04:03.139Z,60.80
2018-07-08T18:06:32.122Z,60.80
2018-07-08T18:09:02.419Z,60.70
2018-07-08T18:11:30.860Z,60.90
2018-07-08T18:13:58.952Z,61.20
2018-07-08T18:16:28.635Z,61.40
2018-07-08T18:18:56.677Z,61.40
2018-07-08T18:21:24.844Z,62.10
2018-07-08T18:23:54.275Z,62.00
2018-07-08T18:26:24.803Z,62.20
2018-07-08T18:28:53.922Z,62.50
2018-07-08T18:31:24.649Z,62.40
2018-07-08T18:33:53.112Z,62.60
2018-07-08T18:36:22.806Z,63.00
2018-07-08T18:38:52.163Z,63.10
2018-07-08T18:41:24.602Z,63.10
2018-07-08T18:43:53.695Z,63.40
2018-07-08T18:46:22.902Z,63.80
2018-07-08T18:48:52.218Z,64.00
2018-07-08T18:51:23.592Z,64.40
2018-07-08T18:53:52.266Z,64.60
2018-07-08T18:56:26.609Z,65.60
2018-07-08T18:58:54.677Z,65.20
2018-07-08T19:01:23.351Z,65.60
2018-07-08T19:03:53.794Z,65.80
2018-07-08T19:06:22.460Z,66.20
2018-07-08T19:08:52.267Z,66.50
2018-07-08T19:11:23.659Z,66.70
2018-07-08T19:13:56.094Z,67.00
2018-07-08T19:16:25.757Z,67.40
2018-07-08T19:18:54.393Z,67.80
2018-07-08T19:21:23.667Z,68.00
2018-07-08T19:23:56.639Z,68.10
2018-07-08T19:26:24.946Z,68.50
2018-07-08T19:28:54.035Z,68.70
2018-07-08T19:31:22.420Z,68.70
2018-07-08T19:33:51.270Z,68.90
2018-07-08T19:36:20.018Z,70.00
2018-07-08T19:38:53.922Z,69.50
2018-07-08T19:41:22.147Z,69.90
2018-07-08T19:43:50.408Z,70.10
2018-07-08T19:46:18.526Z,70.20
2018-07-08T19:48:49.842Z,70.30
2018-07-08T19:51:18.887Z,70.60
2018-07-08T19:56:27.187Z,71.00
2018-07-08T19:58:55.867Z,71.10
2018-07-08T20:01:25.260Z,71.20
2018-07-08T20:03:54.827Z,71.40
2018-07-08T20:06:23.263Z,71.50
2018-07-08T20:08:52.782Z,71.90
2018-07-08T20:11:21.821Z,71.90
2018-07-08T20:13:50.844Z,71.90
2018-07-08T20:16:20.062Z,72.00
2018-07-08T20:18:51.146Z,72.30
2018-07-08T20:21:20.810Z,72.40
2018-07-08T20:23:52.854Z,72.80
2018-07-08T20:26:21.796Z,73.00
2018-07-08T20:28:53.101Z,73.40
2018-07-08T20:31:21.175Z,73.40
2018-07-08T20:33:51.590Z,73.60
2018-07-08T20:36:19.585Z,74.00
2018-07-08T20:38:49.135Z,73.90
2018-07-08T20:41:19.496Z,74.90
2018-07-08T20:43:53.894Z,75.70
2018-07-08T20:46:25.534Z,76.90
2018-07-08T20:48:55.888Z,76.90
2018-07-08T20:51:26.183Z,78.10
2018-07-08T20:53:55.671Z,78.60
2018-07-08T20:56:26.607Z,79.10
2018-07-08T20:58:55.674Z,78.70
2018-07-08T21:01:24.095Z,78.40
2018-07-08T21:03:55.376Z,79.40
2018-07-08T21:06:26.143Z,80.40
2018-07-08T21:08:54.240Z,81.30
2018-07-08T21:11:28.287Z,82.40
2018-07-08T21:13:58.358Z,82.80
2018-07-08T21:16:27.920Z,83.20
2018-07-08T21:19:07.554Z,83.60
2018-07-08T21:21:36.241Z,84.10
2018-07-08T21:24:06.613Z,84.20
2018-07-08T21:26:43.042Z,84.40
2018-07-08T21:29:11.562Z,85.10
2018-07-08T21:31:40.781Z,85.80
2018-07-08T21:34:08.797Z,86.70
2018-07-08T21:36:37.922Z,87.40
2018-07-08T21:39:07.566Z,87.50
2018-07-08T21:41:37.117Z,87.60
2018-07-08T21:44:06.918Z,88.50
2018-07-08T21:46:36.920Z,88.80
2018-07-08T21:49:05.441Z,89.50
2018-07-08T21:51:35.176Z,90.30
2018-07-08T21:54:14.343Z,90.80
2018-07-08T21:56:42.723Z,91.00
2018-07-08T21:59:11.382Z,91.00
2018-07-08T22:02:57.966Z,90.80
2018-07-08T22:05:28.729Z,90.60
2018-07-08T22:08:03.694Z,90.90
2018-07-08T22:10:34.053Z,90.80
2018-07-08T22:13:03.177Z,91.10
2018-07-08T22:15:33.546Z,91.40
2018-07-08T22:18:01.619Z,91.40
2018-07-08T22:20:30.370Z,91.50
2018-07-08T22:22:59.698Z,91.50
2018-07-08T22:25:29.134Z,91.60
2018-07-08T22:27:57.702Z,91.70
2018-07-08T22:30:26.214Z,91.60
2018-07-08T22:32:54.520Z,91.60
2018-07-08T22:35:22.769Z,91.90
2018-07-08T22:37:52.711Z,92.10
2018-07-08T22:40:21.676Z,92.10
2018-07-08T22:42:52.692Z,92.20
2018-07-08T22:45:20.740Z,92.50
2018-07-08T22:47:49.013Z,92.60
2018-07-08T22:50:17.017Z,92.60
2018-07-08T22:52:45.099Z,93.30
2018-07-08T22:55:13.541Z,93.40
2018-07-08T22:57:43.269Z,93.30
2018-07-08T23:00:25.951Z,93.50
2018-07-08T23:04:05.342Z,93.50
2018-07-08T23:06:33.623Z,94.40
2018-07-08T23:09:04.584Z,95.00
2018-07-08T23:11:32.762Z,94.90
2018-07-08T23:14:01.030Z,95.00
2018-07-08T23:16:30.166Z,95.30
2018-07-08T23:18:58.317Z,95.60
2018-07-08T23:21:26.589Z,95.70
2018-07-08T23:23:54.700Z,95.80
2018-07-08T23:26:23.234Z,95.90
2018-07-08T23:28:51.359Z,96.10
2018-07-08T23:31:21.717Z,96.30
2018-07-08T23:33:49.741Z,96.60
2018-07-08T23:36:17.749Z,96.90
2018-07-08T23:38:45.997Z,97.00
2018-07-08T23:41:14.621Z,97.10
2018-07-08T23:46:12.494Z,96.90
2018-07-08T23:48:40.540Z,97.00
2018-07-08T23:51:08.691Z,97.10
2018-07-08T23:53:36.968Z,97.00
2018-07-08T23:56:05.879Z,97.20
2018-07-08T23:58:35.020Z,97.00
